Irondequoit, New York
Current Conditions -  °F | °C
As of 2:54 AM on Monday 26 Jan 2015 (Local Time) from KROC Reporting Station
Light Snow Light Snow  
Wind Chill:   Ceiling: 2800
Heat Index: 13°   Visibility: 10mi
Dew Point:   Wind: 10mph
Humidity: 65%   Direction: 100°E
Pressure: 30.05"   Gusts: NA
Location:  43.21°N, 77.58°W
Report Text: KROC 260754Z 10009KT 10SM -SN OVC028 M11/M16 A3005 RMK AO2 SNB52 SLP188 BINOVC P0000 T11061161
Loading
Personal Weather Stations






























Interactive Weather Map New forecast layout! Learn more

10-Day Weather Forecast

Advertisements
Track Severe Weather on mobile